Terminal Aerodrome Forecast
Issued by NWS

Home | Current Version | Previous Version | Text Only | Print | Product List | Glossary On
Versions: 1 2 3 4 5 6 7 8 9 10 11 12 13 14 15 16 17 18 19 20 21 22 23 24 25 26 27 28 29 30 31 32 33 34 35
697
FTUS44 KFWD 201911 AAA
TAFFTW
TAF AMD
KFTW 201911Z 2019/2118 20008KT P6SM BKN080
     FM201930 34008KT P6SM VCSH BKN040
     FM202000 35012KT P6SM VCSH BKN025
     FM202300 02014KT P6SM VCSH OVC015
     FM210600 02012KT P6SM OVC040
     FM210900 02012KT P6SM VCSH BKN015=

USA.gov is the U.S. government's official web portal to all federal, state and local government web resources and services.